Time;durP1;ratioP1;P1;durP2;ratioP2;P2;SDS_P1;SDS_P2;PMS_P1;PMS_P2;Temp;Humidity;BMP_temperature;BMP_pressure;BME280_temperature;BME280_humidity;BME280_pressure;Samples;Min_cycle;Max_cycle;Signal;HPM_P1;HPM_P2
2022/05/31 00:00:25;;;;;;;3.30;1.05;;;;;;;;;;5083399;28;20075;-85
2022/05/31 00:02:52;;;;;;;1.55;1.10;;;;;;;;;;5082915;28;20035;-85
2022/05/31 00:05:18;;;;;;;1.27;1.00;;;;;;;;;;5083216;28;20058;-85
2022/05/31 00:07:43;;;;;;;1.27;1.05;;;;;;;;;;5083235;28;20044;-85
2022/05/31 00:10:12;;;;;;;3.15;1.10;;;;;;;;;;5083599;28;20032;-85
2022/05/31 00:12:38;;;;;;;1.40;1.10;;;;;;;;;;5083211;28;20028;-84
2022/05/31 00:15:04;;;;;;;1.88;1.10;;;;;;;;;;5081751;28;20037;-84
2022/05/31 00:17:30;;;;;;;1.33;1.10;;;;;;;;;;5082485;28;20036;-85
2022/05/31 00:19:57;;;;;;;1.70;1.08;;;;;;;;;;5083506;28;20508;-85
2022/05/31 00:22:25;;;;;;;1.55;1.13;;;;;;;;;;5082182;28;20028;-85
2022/05/31 00:24:51;;;;;;;1.60;1.10;;;;;;;;;;5082760;28;20036;-85
2022/05/31 00:27:20;;;;;;;1.45;1.00;;;;;;;;;;5081602;28;20036;-84
2022/05/31 00:29:47;;;;;;;2.47;1.10;;;;;;;;;;5082232;28;20064;-84
2022/05/31 00:32:15;;;;;;;1.83;1.05;;;;;;;;;;5082068;28;20090;-84
2022/05/31 00:34:45;;;;;;;2.05;1.00;;;;;;;;;;5082720;28;20036;-84
2022/05/31 00:37:12;;;;;;;1.60;1.00;;;;;;;;;;5083506;28;20036;-84
2022/05/31 00:39:38;;;;;;;1.65;1.00;;;;;;;;;;5083024;28;20059;-84
2022/05/31 00:42:07;;;;;;;1.60;1.20;;;;;;;;;;5065295;28;20028;-85
2022/05/31 00:44:35;;;;;;;2.00;1.20;;;;;;;;;;5081490;28;20466;-85
2022/05/31 00:47:02;;;;;;;2.33;1.23;;;;;;;;;;5064837;28;20036;-84
2022/05/31 00:49:33;;;;;;;2.70;1.13;;;;;;;;;;5064141;28;20036;-84
2022/05/31 00:52:09;;;;;;;1.77;1.15;;;;;;;;;;5081675;28;20032;-84
2022/05/31 00:54:37;;;;;;;1.90;1.05;;;;;;;;;;5081503;28;20080;-84
2022/05/31 00:57:03;;;;;;;4.03;1.13;;;;;;;;;;5083699;28;20037;-85
2022/05/31 00:59:45;;;;;;;1.58;1.05;;;;;;;;;;5082561;28;20046;-85
2022/05/31 01:02:11;;;;;;;2.53;1.10;;;;;;;;;;5081955;28;20040;-84
2022/05/31 01:04:43;;;;;;;1.83;0.93;;;;;;;;;;5081232;28;20059;-85
2022/05/31 01:07:09;;;;;;;1.40;1.10;;;;;;;;;;5081631;28;20035;-85
2022/05/31 01:09:35;;;;;;;1.65;1.17;;;;;;;;;;5082058;28;20012;-85
2022/05/31 01:12:21;;;;;;;2.78;1.05;;;;;;;;;;5082910;28;20051;-84
2022/05/31 01:15:06;;;;;;;2.08;1.10;;;;;;;;;;5083178;28;20047;-85
2022/05/31 01:18:01;;;;;;;2.20;1.27;;;;;;;;;;5082555;28;20036;-84
2022/05/31 01:20:26;;;;;;;1.83;1.00;;;;;;;;;;5082504;28;20032;-85
2022/05/31 01:23:14;;;;;;;1.30;1.00;;;;;;;;;;5082949;28;20112;-84
2022/05/31 01:25:58;;;;;;;2.95;1.25;;;;;;;;;;5063905;28;20033;-84
2022/05/31 01:28:51;;;;;;;3.75;1.20;;;;;;;;;;5064591;28;20032;-85
2022/05/31 01:31:41;;;;;;;1.40;1.08;;;;;;;;;;5081555;28;20046;-84
2022/05/31 01:34:36;;;;;;;5.18;1.20;;;;;;;;;;5080859;28;20029;-84
2022/05/31 01:37:02;;;;;;;1.13;1.00;;;;;;;;;;5082785;28;20062;-84
2022/05/31 01:39:41;;;;;;;1.10;1.00;;;;;;;;;;5080346;28;20020;-84
2022/05/31 01:42:32;;;;;;;1.40;1.00;;;;;;;;;;5080465;28;20086;-85
2022/05/31 01:45:05;;;;;;;1.85;1.23;;;;;;;;;;5080571;28;20032;-85
2022/05/31 01:47:30;;;;;;;2.72;1.10;;;;;;;;;;5080507;28;20029;-85
2022/05/31 01:49:57;;;;;;;3.20;1.10;;;;;;;;;;5080729;28;20058;-85
2022/05/31 01:52:23;;;;;;;1.80;1.10;;;;;;;;;;5080343;28;20067;-85
2022/05/31 01:54:50;;;;;;;2.50;1.17;;;;;;;;;;5064350;28;20111;-85
2022/05/31 01:57:18;;;;;;;1.45;1.10;;;;;;;;;;5081515;28;20119;-85
2022/05/31 01:59:54;;;;;;;2.00;1.20;;;;;;;;;;5081310;28;20029;-85
2022/05/31 02:02:20;;;;;;;2.40;1.10;;;;;;;;;;5080346;28;20115;-85
2022/05/31 02:04:46;;;;;;;1.20;1.10;;;;;;;;;;5080112;28;20020;-85
2022/05/31 02:07:21;;;;;;;1.90;1.20;;;;;;;;;;5081437;28;20016;-84
2022/05/31 02:09:49;;;;;;;2.65;1.10;;;;;;;;;;5063631;28;20032;-85
2022/05/31 02:12:29;;;;;;;1.73;1.02;;;;;;;;;;5079731;28;20036;-85
2022/05/31 02:15:21;;;;;;;1.63;1.00;;;;;;;;;;5080059;28;20043;-85
2022/05/31 02:18:06;;;;;;;4.22;1.08;;;;;;;;;;5080208;28;20051;-85
2022/05/31 02:20:50;;;;;;;3.17;1.00;;;;;;;;;;5082085;28;20055;-85
2022/05/31 02:23:15;;;;;;;1.15;1.00;;;;;;;;;;5063280;28;20037;-85
2022/05/31 02:25:41;;;;;;;2.75;0.90;;;;;;;;;;5080230;28;20028;-84
2022/05/31 02:28:06;;;;;;;1.35;1.00;;;;;;;;;;5080074;28;20050;-84
2022/05/31 02:30:32;;;;;;;2.03;1.05;;;;;;;;;;5080048;28;20399;-85
2022/05/31 02:32:57;;;;;;;2.58;1.00;;;;;;;;;;5079369;28;20032;-84
2022/05/31 02:35:23;;;;;;;2.03;1.17;;;;;;;;;;5080014;28;20032;-85
2022/05/31 02:37:49;;;;;;;3.80;1.15;;;;;;;;;;5079651;28;20455;-84
2022/05/31 02:40:14;;;;;;;1.85;1.20;;;;;;;;;;5079080;28;20028;-84
2022/05/31 02:42:42;;;;;;;3.53;1.13;;;;;;;;;;5079786;28;20029;-85
2022/05/31 02:45:08;;;;;;;1.60;1.10;;;;;;;;;;5079159;28;20507;-84
2022/05/31 02:47:34;;;;;;;2.25;1.00;;;;;;;;;;5079416;28;20032;-84
2022/05/31 02:50:00;;;;;;;1.10;1.00;;;;;;;;;;5079183;28;20055;-84
2022/05/31 02:52:26;;;;;;;1.92;1.10;;;;;;;;;;5079692;28;20056;-85
2022/05/31 02:54:51;;;;;;;1.15;1.05;;;;;;;;;;5079170;28;20037;-84
2022/05/31 02:57:20;;;;;;;1.25;1.00;;;;;;;;;;5080197;28;20481;-85
2022/05/31 02:59:55;;;;;;;2.45;1.10;;;;;;;;;;5080695;28;20029;-85
2022/05/31 03:02:40;;;;;;;1.15;1.00;;;;;;;;;;5080910;28;20043;-85
2022/05/31 03:05:25;;;;;;;1.35;0.98;;;;;;;;;;5079515;28;20071;-85
2022/05/31 03:08:16;;;;;;;1.30;1.00;;;;;;;;;;5078795;28;20037;-84
2022/05/31 03:11:01;;;;;;;1.27;1.10;;;;;;;;;;5080015;28;20600;-85
2022/05/31 03:13:29;;;;;;;1.17;0.98;;;;;;;;;;5079371;28;20051;-84
2022/05/31 03:16:01;;;;;;;1.75;1.00;;;;;;;;;;5080165;28;20051;-85
2022/05/31 03:18:33;;;;;;;2.30;1.13;;;;;;;;;;5080762;28;20060;-85
2022/05/31 03:21:04;;;;;;;2.53;1.10;;;;;;;;;;5079157;28;20048;-85
2022/05/31 03:23:34;;;;;;;1.27;0.90;;;;;;;;;;5079286;28;20082;-84
2022/05/31 03:26:03;;;;;;;1.52;1.15;;;;;;;;;;5062287;28;20043;-85
2022/05/31 03:28:31;;;;;;;1.77;1.20;;;;;;;;;;5079615;28;20587;-85
2022/05/31 03:30:57;;;;;;;3.28;1.10;;;;;;;;;;5079062;28;20040;-85
2022/05/31 03:33:23;;;;;;;1.08;0.98;;;;;;;;;;5079632;28;20041;-85
2022/05/31 03:35:48;;;;;;;1.40;1.00;;;;;;;;;;5080321;28;20115;-84
2022/05/31 03:38:24;;;;;;;2.33;0.95;;;;;;;;;;5064473;28;20071;-85
2022/05/31 03:40:58;;;;;;;1.42;0.90;;;;;;;;;;5079283;28;20037;-85
2022/05/31 03:43:42;;;;;;;3.78;1.00;;;;;;;;;;5079888;28;20309;-84
2022/05/31 03:46:34;;;;;;;1.73;1.05;;;;;;;;;;5080903;28;20045;-85
2022/05/31 03:49:09;;;;;;;1.27;1.00;;;;;;;;;;5081503;28;20040;-85
2022/05/31 03:51:54;;;;;;;2.35;1.00;;;;;;;;;;5084259;28;20097;-85
2022/05/31 03:54:26;;;;;;;3.85;1.08;;;;;;;;;;5083555;28;20025;-85
2022/05/31 03:57:19;;;;;;;2.45;1.10;;;;;;;;;;5084620;28;20036;-85
2022/05/31 03:59:50;;;;;;;1.65;1.00;;;;;;;;;;5082981;28;20040;-85
2022/05/31 04:02:16;;;;;;;1.98;1.02;;;;;;;;;;5082962;28;20044;-85
2022/05/31 04:04:43;;;;;;;1.17;1.00;;;;;;;;;;5082356;28;20064;-84
2022/05/31 04:07:08;;;;;;;2.80;1.10;;;;;;;;;;5065275;28;20120;-84
2022/05/31 04:09:34;;;;;;;1.10;1.00;;;;;;;;;;5066822;28;20032;-84
2022/05/31 04:12:02;;;;;;;2.08;1.10;;;;;;;;;;5082970;28;20032;-84
2022/05/31 04:15:05;;;;;;;2.08;1.00;;;;;;;;;;5022060;28;20038;-85
2022/05/31 04:17:31;;;;;;;1.70;0.93;;;;;;;;;;5069646;28;20044;-84
2022/05/31 04:19:57;;;;;;;3.03;1.10;;;;;;;;;;5082331;28;20043;-84
2022/05/31 04:22:23;;;;;;;2.63;1.08;;;;;;;;;;5082479;28;20047;-85
2022/05/31 04:24:57;;;;;;;2.30;1.05;;;;;;;;;;5082320;28;20028;-84
2022/05/31 04:27:45;;;;;;;1.92;1.00;;;;;;;;;;5083692;28;20432;-84
2022/05/31 04:30:37;;;;;;;1.42;1.15;;;;;;;;;;5067099;28;20036;-84
2022/05/31 04:33:21;;;;;;;3.00;1.20;;;;;;;;;;5083473;28;20124;-84
2022/05/31 04:35:47;;;;;;;1.20;0.90;;;;;;;;;;5082093;28;20056;-84
2022/05/31 04:38:12;;;;;;;1.35;1.02;;;;;;;;;;5083152;28;20036;-85
2022/05/31 04:40:56;;;;;;;1.60;1.00;;;;;;;;;;5083358;28;20050;-84
2022/05/31 04:44:00;;;;;;;2.22;1.20;;;;;;;;;;5074396;28;20060;-83
2022/05/31 04:46:33;;;;;;;1.95;1.23;;;;;;;;;;5066370;28;20089;-85
2022/05/31 04:49:32;;;;;;;2.00;1.10;;;;;;;;;;5082627;28;20033;-84
2022/05/31 04:51:57;;;;;;;1.50;1.17;;;;;;;;;;5082408;28;20047;-84
2022/05/31 04:54:28;;;;;;;4.72;1.45;;;;;;;;;;5081222;28;20032;-84
2022/05/31 04:57:05;;;;;;;2.00;1.10;;;;;;;;;;5082006;28;20504;-85
2022/05/31 04:59:30;;;;;;;3.22;1.08;;;;;;;;;;5080976;28;20058;-84
2022/05/31 05:01:56;;;;;;;1.67;0.95;;;;;;;;;;5081758;28;20028;-84
2022/05/31 05:04:35;;;;;;;2.25;1.00;;;;;;;;;;5081380;28;20024;-83
2022/05/31 05:07:01;;;;;;;1.15;1.05;;;;;;;;;;5082343;28;20052;-84
2022/05/31 05:09:26;;;;;;;2.67;1.10;;;;;;;;;;5081917;28;20036;-84
2022/05/31 05:12:10;;;;;;;1.65;1.33;;;;;;;;;;5082429;28;20055;-84
2022/05/31 05:14:38;;;;;;;1.92;1.15;;;;;;;;;;5081004;28;20095;-83
2022/05/31 05:17:13;;;;;;;2.55;1.08;;;;;;;;;;5081135;28;20044;-84
2022/05/31 05:19:43;;;;;;;1.60;1.10;;;;;;;;;;5081466;28;20029;-84
2022/05/31 05:22:09;;;;;;;1.77;1.00;;;;;;;;;;5065208;28;20099;-85
2022/05/31 05:24:36;;;;;;;2.22;1.20;;;;;;;;;;5081911;28;20029;-85
2022/05/31 05:27:24;;;;;;;1.30;1.08;;;;;;;;;;5083272;28;20048;-85
2022/05/31 05:33:25;;;;;;;2.55;1.10;;;;;;;;;;5074215;28;20032;-84
2022/05/31 05:36:30;;;;;;;2.47;1.00;;;;;;;;;;5040336;28;20104;-84
2022/05/31 05:38:55;;;;;;;1.27;1.02;;;;;;;;;;5007303;28;20060;-84
2022/05/31 05:41:40;;;;;;;1.83;0.90;;;;;;;;;;5065160;28;20056;-83
2022/05/31 05:44:41;;;;;;;2.33;0.90;;;;;;;;;;5039386;28;20045;-85
2022/05/31 05:47:09;;;;;;;1.20;1.00;;;;;;;;;;5068554;28;20475;-84
2022/05/31 05:49:35;;;;;;;1.80;1.05;;;;;;;;;;5079428;28;20503;-84
2022/05/31 05:52:17;;;;;;;1.40;0.90;;;;;;;;;;5062504;28;20033;-84
2022/05/31 05:55:02;;;;;;;1.17;1.02;;;;;;;;;;5078385;28;20051;-82
2022/05/31 05:57:46;;;;;;;3.35;0.95;;;;;;;;;;5078061;28;20095;-83
2022/05/31 06:00:31;;;;;;;1.20;0.90;;;;;;;;;;5078334;28;20051;-84
2022/05/31 06:03:07;;;;;;;1.45;1.02;;;;;;;;;;5081153;28;20036;-84
2022/05/31 06:05:47;;;;;;;1.20;0.82;;;;;;;;;;5075995;28;20033;-85
2022/05/31 06:08:22;;;;;;;2.85;1.00;;;;;;;;;;5077396;28;20044;-85
2022/05/31 06:11:09;;;;;;;5.15;1.00;;;;;;;;;;5060312;28;20071;-85
2022/05/31 06:13:45;;;;;;;1.80;1.00;;;;;;;;;;5078282;28;20527;-85
2022/05/31 06:16:13;;;;;;;1.88;1.10;;;;;;;;;;5063075;28;20400;-85
2022/05/31 06:18:52;;;;;;;2.78;0.93;;;;;;;;;;5060480;28;20086;-86
2022/05/31 06:21:20;;;;;;;3.15;1.02;;;;;;;;;;5078442;28;20491;-86
2022/05/31 06:23:49;;;;;;;1.90;1.15;;;;;;;;;;5077039;28;20028;-85
2022/05/31 06:26:17;;;;;;;1.70;1.20;;;;;;;;;;5077587;28;20124;-86
2022/05/31 06:28:48;;;;;;;2.15;0.98;;;;;;;;;;5079724;28;20142;-84
2022/05/31 06:31:14;;;;;;;1.08;0.95;;;;;;;;;;5079772;28;20078;-85
2022/05/31 06:33:39;;;;;;;1.30;1.00;;;;;;;;;;5080736;28;20025;-84
2022/05/31 06:36:07;;;;;;;1.75;1.15;;;;;;;;;;5078269;28;20040;-85
2022/05/31 06:38:34;;;;;;;2.10;1.30;;;;;;;;;;5077794;28;20043;-84
2022/05/31 06:41:00;;;;;;;1.83;0.98;;;;;;;;;;5077776;28;20125;-85
2022/05/31 06:43:42;;;;;;;3.78;1.00;;;;;;;;;;5077953;28;20037;-85
2022/05/31 06:46:27;;;;;;;1.50;0.90;;;;;;;;;;5080033;28;20119;-84
2022/05/31 06:49:11;;;;;;;1.63;1.00;;;;;;;;;;5079327;28;20416;-84
2022/05/31 06:57:57;;;;;;;2.72;1.10;;;;;;;;;;5078088;28;19912;-86
2022/05/31 07:00:39;;;;;;;2.20;1.10;;;;;;;;;;5078442;28;20039;-85
2022/05/31 07:03:06;;;;;;;0.80;0.70;;;;;;;;;;5079031;28;20100;-85
2022/05/31 07:05:34;;;;;;;1.10;0.90;;;;;;;;;;5079466;28;20033;-85
2022/05/31 07:08:00;;;;;;;1.35;0.80;;;;;;;;;;5080009;28;20032;-85
2022/05/31 07:10:44;;;;;;;2.13;1.00;;;;;;;;;;5080278;28;20040;-86
2022/05/31 07:13:17;;;;;;;3.08;1.05;;;;;;;;;;5079764;28;20094;-86
2022/05/31 07:16:01;;;;;;;3.85;1.00;;;;;;;;;;5079362;28;20055;-86
2022/05/31 07:18:45;;;;;;;2.05;1.02;;;;;;;;;;5079134;28;20059;-85
2022/05/31 07:21:11;;;;;;;2.30;0.90;;;;;;;;;;5078191;28;20028;-87
2022/05/31 07:23:40;;;;;;;2.70;1.00;;;;;;;;;;5079827;28;20055;-85
2022/05/31 07:26:08;;;;;;;1.00;0.90;;;;;;;;;;5082259;28;20024;-85
2022/05/31 07:28:34;;;;;;;0.85;0.85;;;;;;;;;;5063513;28;20504;-86
2022/05/31 07:31:01;;;;;;;2.10;1.02;;;;;;;;;;5079748;28;20485;-87
2022/05/31 07:33:28;;;;;;;1.27;1.08;;;;;;;;;;5063471;28;20059;-87
2022/05/31 07:35:55;;;;;;;0.98;0.88;;;;;;;;;;5080387;28;20037;-86
2022/05/31 07:38:23;;;;;;;2.60;1.30;;;;;;;;;;5079986;28;20574;-85
2022/05/31 07:40:50;;;;;;;2.33;1.20;;;;;;;;;;5079453;28;20041;-86
2022/05/31 07:43:16;;;;;;;2.45;1.08;;;;;;;;;;5079191;28;20119;-87
2022/05/31 07:45:44;;;;;;;2.58;0.90;;;;;;;;;;5079783;28;20512;-86
2022/05/31 07:48:11;;;;;;;2.92;1.10;;;;;;;;;;5080099;28;20056;-83
2022/05/31 07:50:37;;;;;;;2.15;0.82;;;;;;;;;;5079357;28;20033;-86
2022/05/31 07:53:35;;;;;;;1.70;0.95;;;;;;;;;;5080868;28;20040;-86
2022/05/31 07:56:32;;;;;;;1.15;1.00;;;;;;;;;;5080920;28;20045;-87
2022/05/31 07:59:07;;;;;;;1.90;0.90;;;;;;;;;;5080936;28;20048;-85
2022/05/31 08:01:51;;;;;;;2.05;1.00;;;;;;;;;;5082580;28;20100;-87
2022/05/31 08:04:28;;;;;;;4.07;1.10;;;;;;;;;;5064218;28;20045;-87
2022/05/31 08:06:59;;;;;;;6.38;1.00;;;;;;;;;;5080380;28;20036;-87
2022/05/31 08:09:25;;;;;;;1.83;1.02;;;;;;;;;;5080595;28;20495;-87
2022/05/31 08:11:51;;;;;;;2.20;0.93;;;;;;;;;;5082097;28;20020;-87
2022/05/31 08:14:16;;;;;;;2.25;1.00;;;;;;;;;;5082069;28;20099;-86
2022/05/31 08:16:42;;;;;;;1.88;1.08;;;;;;;;;;5082386;28;20500;-85
2022/05/31 08:19:07;;;;;;;4.32;1.10;;;;;;;;;;5082628;28;20032;-85
2022/05/31 08:21:33;;;;;;;3.15;0.88;;;;;;;;;;5082039;28;20077;-86
2022/05/31 08:24:02;;;;;;;3.08;0.90;;;;;;;;;;5080807;28;20485;-86
2022/05/31 08:26:27;;;;;;;1.50;0.93;;;;;;;;;;5064170;28;20040;-85
2022/05/31 08:28:54;;;;;;;1.63;0.95;;;;;;;;;;5081152;28;20039;-85
2022/05/31 08:31:31;;;;;;;1.98;1.17;;;;;;;;;;5080918;28;20033;-86
2022/05/31 08:33:57;;;;;;;2.03;1.00;;;;;;;;;;5081344;28;20080;-86
2022/05/31 08:36:23;;;;;;;1.98;1.08;;;;;;;;;;5080982;28;20047;-86
2022/05/31 08:38:49;;;;;;;1.95;1.00;;;;;;;;;;5080735;28;20092;-85
2022/05/31 08:41:32;;;;;;;3.47;0.98;;;;;;;;;;5081588;28;20067;-86
2022/05/31 08:44:03;;;;;;;2.38;1.08;;;;;;;;;;5080379;28;20034;-85
2022/05/31 08:46:34;;;;;;;1.63;1.00;;;;;;;;;;5080281;28;20068;-85
2022/05/31 08:49:09;;;;;;;3.53;1.05;;;;;;;;;;5082188;28;20039;-86
2022/05/31 08:51:55;;;;;;;1.95;1.00;;;;;;;;;;5080386;28;20032;-85
2022/05/31 08:57:42;;;;;;;1.75;1.10;;;;;;;;;;5080179;28;20055;-85
2022/05/31 09:00:16;;;;;;;1.20;1.08;;;;;;;;;;5079658;28;20036;-86
2022/05/31 09:02:54;;;;;;;2.83;1.10;;;;;;;;;;5081587;28;20040;-88
2022/05/31 09:05:23;;;;;;;2.42;1.00;;;;;;;;;;5080524;28;20031;-83
2022/05/31 09:07:54;;;;;;;1.60;1.00;;;;;;;;;;5078325;28;20512;-84
2022/05/31 09:10:38;;;;;;;1.80;1.10;;;;;;;;;;5078840;28;20064;-85
2022/05/31 09:13:17;;;;;;;1.52;1.08;;;;;;;;;;5077896;28;20106;-84
2022/05/31 09:15:47;;;;;;;3.22;1.30;;;;;;;;;;5077523;28;20289;-85
2022/05/31 09:18:24;;;;;;;3.63;1.17;;;;;;;;;;5078292;28;20029;-84
2022/05/31 09:21:00;;;;;;;1.35;1.00;;;;;;;;;;5078476;28;20037;-85
2022/05/31 09:23:32;;;;;;;2.35;1.15;;;;;;;;;;5077962;28;20059;-85
2022/05/31 09:26:36;;;;;;;1.52;1.10;;;;;;;;;;5076642;28;20036;-84
2022/05/31 09:29:21;;;;;;;1.75;1.02;;;;;;;;;;5078592;28;20032;-84
2022/05/31 09:31:53;;;;;;;3.78;1.10;;;;;;;;;;5078234;28;20041;-84
2022/05/31 09:34:28;;;;;;;1.58;1.10;;;;;;;;;;5077759;28;20064;-84
2022/05/31 09:37:20;;;;;;;2.40;1.13;;;;;;;;;;5060124;28;20539;-82
2022/05/31 09:40:14;;;;;;;2.53;1.15;;;;;;;;;;5077252;28;20047;-84
2022/05/31 09:42:45;;;;;;;2.28;1.40;;;;;;;;;;5077889;28;20037;-84
2022/05/31 09:45:16;;;;;;;1.48;1.10;;;;;;;;;;5078339;28;20036;-86
2022/05/31 09:47:41;;;;;;;2.88;1.33;;;;;;;;;;5076796;28;20039;-84
2022/05/31 09:50:07;;;;;;;2.65;1.30;;;;;;;;;;5077722;28;20087;-84
2022/05/31 09:52:37;;;;;;;1.90;1.10;;;;;;;;;;5076542;28;20060;-85
2022/05/31 09:58:21;;;;;;;1.75;1.20;;;;;;;;;;5077289;28;20100;-85
2022/05/31 10:01:15;;;;;;;1.50;1.08;;;;;;;;;;5066339;28;20068;-85
2022/05/31 10:03:46;;;;;;;2.97;1.30;;;;;;;;;;5076459;28;20050;-84
2022/05/31 10:06:35;;;;;;;2.85;1.13;;;;;;;;;;5077558;28;20043;-85
2022/05/31 10:09:18;;;;;;;3.38;1.08;;;;;;;;;;5075652;28;20071;-85
2022/05/31 10:11:45;;;;;;;1.77;1.08;;;;;;;;;;5077370;28;20032;-85
2022/05/31 10:14:32;;;;;;;7.85;1.17;;;;;;;;;;5075923;28;20473;-84
2022/05/31 10:17:15;;;;;;;2.28;1.00;;;;;;;;;;5077566;28;20473;-86
2022/05/31 10:19:41;;;;;;;2.17;1.00;;;;;;;;;;5078809;28;20036;-86
2022/05/31 10:22:18;;;;;;;1.85;0.95;;;;;;;;;;5077781;28;20111;-86
2022/05/31 10:25:33;;;;;;;5.88;1.30;;;;;;;;;;5044421;28;20464;-86
2022/05/31 10:28:40;;;;;;;5.50;1.25;;;;;;;;;;5077530;28;20564;-86
2022/05/31 10:31:26;;;;;;;1.67;1.25;;;;;;;;;;5078736;28;20052;-85
2022/05/31 10:33:56;;;;;;;2.53;1.33;;;;;;;;;;5078917;28;20036;-86
2022/05/31 10:36:28;;;;;;;2.97;1.08;;;;;;;;;;5079055;28;20041;-86
2022/05/31 10:38:54;;;;;;;2.38;1.05;;;;;;;;;;5079877;28;20036;-87
2022/05/31 10:41:29;;;;;;;2.42;1.95;;;;;;;;;;5077269;28;20064;-86
2022/05/31 10:44:13;;;;;;;2.25;1.10;;;;;;;;;;5079015;28;20044;-86
2022/05/31 10:46:43;;;;;;;1.70;1.10;;;;;;;;;;5077117;28;20142;-85
2022/05/31 10:49:20;;;;;;;2.63;1.10;;;;;;;;;;5079010;28;20033;-85
2022/05/31 10:52:12;;;;;;;3.03;1.10;;;;;;;;;;5081886;28;20089;-86
2022/05/31 10:54:52;;;;;;;1.88;1.10;;;;;;;;;;5082614;28;20072;-85
2022/05/31 10:58:15;;;;;;;2.17;1.30;;;;;;;;;;5086330;28;20040;-86
2022/05/31 11:00:52;;;;;;;1.88;1.05;;;;;;;;;;5082677;28;20069;-86
2022/05/31 11:03:45;;;;;;;2.30;1.02;;;;;;;;;;5082683;28;20036;-87
2022/05/31 11:06:11;;;;;;;1.55;0.90;;;;;;;;;;5082452;28;20062;-86
2022/05/31 11:11:55;;;;;;;4.07;1.20;;;;;;;;;;5081423;28;20052;-86
2022/05/31 11:14:39;;;;;;;1.35;1.00;;;;;;;;;;5086836;28;20032;-86
2022/05/31 11:17:11;;;;;;;2.20;1.10;;;;;;;;;;5086412;28;20127;-85
2022/05/31 11:19:45;;;;;;;4.38;1.05;;;;;;;;;;5084427;28;20044;-85
2022/05/31 11:22:37;;;;;;;5.40;1.10;;;;;;;;;;5085744;28;20037;-85
2022/05/31 11:25:26;;;;;;;1.42;1.00;;;;;;;;;;5085315;28;20043;-86
2022/05/31 11:28:02;;;;;;;1.98;1.10;;;;;;;;;;5080246;28;20445;-86
2022/05/31 11:31:10;;;;;;;2.72;1.02;;;;;;;;;;5085361;28;20098;-86
2022/05/31 11:33:54;;;;;;;4.38;1.00;;;;;;;;;;5084676;28;20044;-85
2022/05/31 11:36:35;;;;;;;2.13;1.00;;;;;;;;;;5085612;28;20043;-86
2022/05/31 11:39:19;;;;;;;4.88;0.90;;;;;;;;;;5084647;28;20040;-86
2022/05/31 11:42:03;;;;;;;1.98;1.20;;;;;;;;;;5082360;28;20126;-86
2022/05/31 11:44:41;;;;;;;1.65;0.90;;;;;;;;;;5083123;28;20036;-86
2022/05/31 11:47:19;;;;;;;1.50;0.93;;;;;;;;;;5082305;28;20068;-86
2022/05/31 11:50:14;;;;;;;2.80;0.98;;;;;;;;;;5081785;28;20132;-86
2022/05/31 11:52:48;;;;;;;5.25;1.30;;;;;;;;;;5079841;28;20032;-86
2022/05/31 11:55:26;;;;;;;1.98;0.98;;;;;;;;;;5081190;28;20032;-87
2022/05/31 11:58:15;;;;;;;1.02;0.90;;;;;;;;;;5077326;28;20111;-87
2022/05/31 12:00:44;;;;;;;1.50;0.90;;;;;;;;;;5083485;28;20039;-88
2022/05/31 12:03:13;;;;;;;2.45;0.90;;;;;;;;;;5062993;28;20055;-86
2022/05/31 12:05:43;;;;;;;2.17;1.13;;;;;;;;;;5080794;28;20028;-86
2022/05/31 12:08:24;;;;;;;4.20;1.10;;;;;;;;;;5079888;28;20044;-86
2022/05/31 12:11:02;;;;;;;2.90;1.15;;;;;;;;;;5080020;28;20032;-87
2022/05/31 12:13:28;;;;;;;2.83;1.15;;;;;;;;;;5081593;28;20028;-86
2022/05/31 12:15:55;;;;;;;1.83;1.02;;;;;;;;;;5080878;28;20040;-87
2022/05/31 12:18:42;;;;;;;1.17;0.90;;;;;;;;;;5081405;28;20040;-86
2022/05/31 12:21:30;;;;;;;2.40;1.00;;;;;;;;;;5081349;28;20030;-87
2022/05/31 12:24:11;;;;;;;2.50;1.08;;;;;;;;;;5079701;28;20051;-85
2022/05/31 12:26:45;;;;;;;2.50;1.00;;;;;;;;;;5080433;28;20032;-86
2022/05/31 12:29:19;;;;;;;1.73;0.90;;;;;;;;;;5081455;28;20419;-87
2022/05/31 12:31:45;;;;;;;2.85;1.02;;;;;;;;;;5081637;28;20037;-87
2022/05/31 12:34:38;;;;;;;5.35;1.10;;;;;;;;;;5080311;28;20036;-87
2022/05/31 12:37:12;;;;;;;1.50;0.90;;;;;;;;;;5076588;28;20048;-87
2022/05/31 12:39:39;;;;;;;3.92;0.95;;;;;;;;;;5081308;28;20040;-87
2022/05/31 12:42:10;;;;;;;3.03;1.05;;;;;;;;;;5081971;28;20028;-87
2022/05/31 12:44:36;;;;;;;1.63;0.90;;;;;;;;;;5080392;28;20131;-87
2022/05/31 12:47:26;;;;;;;1.65;1.00;;;;;;;;;;5079720;28;20464;-87
2022/05/31 12:50:04;;;;;;;1.17;0.90;;;;;;;;;;5080264;28;20066;-87
2022/05/31 12:55:26;;;;;;;3.30;1.00;;;;;;;;;;5080195;28;20032;-88
2022/05/31 13:00:48;;;;;;;1.85;0.90;;;;;;;;;;5083089;28;20036;-87
2022/05/31 13:03:36;;;;;;;2.55;1.10;;;;;;;;;;5080376;28;20037;-86
2022/05/31 13:06:09;;;;;;;3.55;1.00;;;;;;;;;;5081072;28;20035;-87
2022/05/31 13:08:51;;;;;;;1.88;1.23;;;;;;;;;;5082117;28;20503;-87
2022/05/31 13:20:33;;;;;;;1.80;1.20;;;;;;;;;;5078223;28;20066;-87
2022/05/31 13:23:02;;;;;;;;;;;;;;;;;;5083558;28;20109;-87
2022/05/31 13:25:32;;;;;;;3.45;1.00;;;;;;;;;;5080363;28;19915;-87
2022/05/31 13:28:01;;;;;;;2.88;1.10;;;;;;;;;;5080472;28;20080;-87
2022/05/31 13:30:29;;;;;;;1.60;1.00;;;;;;;;;;5080562;28;20036;-87
2022/05/31 13:32:56;;;;;;;3.42;1.10;;;;;;;;;;5081626;28;20024;-86
2022/05/31 13:35:26;;;;;;;2.88;1.08;;;;;;;;;;5080803;28;20459;-86
2022/05/31 13:37:54;;;;;;;2.53;1.20;;;;;;;;;;5081915;28;20032;-87
2022/05/31 13:40:22;;;;;;;1.77;1.10;;;;;;;;;;5081121;28;20450;-87
2022/05/31 13:42:48;;;;;;;2.35;1.20;;;;;;;;;;5082251;28;20044;-87
2022/05/31 13:45:21;;;;;;;2.95;1.17;;;;;;;;;;5081711;28;20031;-87
2022/05/31 13:47:48;;;;;;;1.83;1.20;;;;;;;;;;5081675;28;20064;-87
2022/05/31 13:50:20;;;;;;;3.83;1.35;;;;;;;;;;5081965;28;20093;-86
2022/05/31 13:52:49;;;;;;;2.03;1.10;;;;;;;;;;5080172;28;20032;-86
2022/05/31 13:55:27;;;;;;;1.95;1.10;;;;;;;;;;5079068;28;20036;-86
2022/05/31 13:57:58;;;;;;;2.15;1.00;;;;;;;;;;5081841;28;20032;-87
2022/05/31 14:00:46;;;;;;;4.00;1.10;;;;;;;;;;5078618;28;20036;-88
2022/05/31 14:03:29;;;;;;;2.00;1.10;;;;;;;;;;5079894;28;20037;-86
2022/05/31 14:05:56;;;;;;;4.75;1.20;;;;;;;;;;5080641;28;20059;-87
2022/05/31 14:08:33;;;;;;;2.67;1.10;;;;;;;;;;5080374;28;20031;-87
2022/05/31 14:10:59;;;;;;;2.50;1.20;;;;;;;;;;5080666;28;20092;-87
2022/05/31 14:13:29;;;;;;;2.70;1.30;;;;;;;;;;5081637;28;20024;-88
2022/05/31 14:16:13;;;;;;;2.22;1.20;;;;;;;;;;5080214;28;20122;-88
2022/05/31 14:18:57;;;;;;;5.32;1.10;;;;;;;;;;5082422;28;20071;-87
2022/05/31 14:21:25;;;;;;;3.15;1.00;;;;;;;;;;5081983;28;20037;-87
2022/05/31 14:23:52;;;;;;;3.70;1.10;;;;;;;;;;5080507;28;20130;-87
2022/05/31 14:26:18;;;;;;;2.38;1.10;;;;;;;;;;5079404;28;20032;-87
2022/05/31 14:29:09;;;;;;;1.35;0.98;;;;;;;;;;5079408;28;20489;-87
2022/05/31 14:31:35;;;;;;;4.63;1.17;;;;;;;;;;5079920;28;20111;-87
2022/05/31 14:34:16;;;;;;;3.35;1.05;;;;;;;;;;5079172;28;20392;-87
2022/05/31 14:36:41;;;;;;;2.22;1.08;;;;;;;;;;5079381;28;20072;-87
2022/05/31 14:39:15;;;;;;;3.05;1.10;;;;;;;;;;5079181;28;20040;-87
2022/05/31 14:41:41;;;;;;;3.60;1.10;;;;;;;;;;5079338;28;20037;-87
2022/05/31 14:44:46;;;;;;;1.73;1.20;;;;;;;;;;5078480;28;20071;-87
2022/05/31 14:47:21;;;;;;;2.38;1.10;;;;;;;;;;5081024;28;20121;-87
2022/05/31 14:49:49;;;;;;;1.75;1.00;;;;;;;;;;5079516;28;20036;-87
2022/05/31 14:52:24;;;;;;;3.70;1.10;;;;;;;;;;5078757;28;20489;-87
2022/05/31 14:54:51;;;;;;;5.70;1.13;;;;;;;;;;5078284;28;20111;-87
2022/05/31 14:58:37;;;;;;;4.97;1.38;;;;;;;;;;5078502;28;20039;-88
2022/05/31 15:00:18;;;;;;;1.95;1.00;;;;;;;;;;5078567;28;20036;-87
2022/05/31 15:02:45;;;;;;;3.28;1.10;;;;;;;;;;5077295;28;20032;-87
2022/05/31 15:05:11;;;;;;;1.90;0.90;;;;;;;;;;5078627;28;20059;-87
2022/05/31 15:08:00;;;;;;;4.28;1.10;;;;;;;;;;5076843;28;20036;-87
2022/05/31 15:10:25;;;;;;;1.60;1.10;;;;;;;;;;5078680;28;20371;-87
2022/05/31 15:21:21;;;;;;;2.22;1.20;;;;;;;;;;5077455;28;20480;-87
2022/05/31 15:23:47;;;;;;;1.77;1.10;;;;;;;;;;5078022;28;20044;-85
2022/05/31 15:26:15;;;;;;;2.22;1.30;;;;;;;;;;5077527;28;20028;-87
2022/05/31 15:28:43;;;;;;;2.20;1.02;;;;;;;;;;5076942;28;20037;-87
2022/05/31 15:31:25;;;;;;;2.50;1.23;;;;;;;;;;5074448;28;20021;-86
2022/05/31 15:33:51;;;;;;;4.32;1.40;;;;;;;;;;5075999;28;20035;-86
2022/05/31 15:36:16;;;;;;;6.28;1.83;;;;;;;;;;5076509;28;20032;-86
2022/05/31 15:38:42;;;;;;;4.30;1.67;;;;;;;;;;5073841;28;20049;-86
2022/05/31 15:41:07;;;;;;;3.38;1.73;;;;;;;;;;5075969;28;20032;-86
2022/05/31 15:46:17;;;;;;;5.78;1.98;;;;;;;;;;5078546;28;20507;-85
2022/05/31 15:48:43;;;;;;;3.63;2.00;;;;;;;;;;5078272;28;20029;-85
2022/05/31 15:51:09;;;;;;;2.95;1.90;;;;;;;;;;5078370;28;20032;-85
2022/05/31 15:53:36;;;;;;;3.83;1.92;;;;;;;;;;5078334;28;20060;-86
2022/05/31 15:56:03;;;;;;;4.97;1.90;;;;;;;;;;5077631;28;20079;-86
2022/05/31 15:58:33;;;;;;;4.53;2.25;;;;;;;;;;5080697;28;20036;-86
2022/05/31 16:00:59;;;;;;;2.47;1.70;;;;;;;;;;5082858;28;20443;-87
2022/05/31 16:03:24;;;;;;;7.50;1.80;;;;;;;;;;5083064;28;20036;-87
2022/05/31 16:05:50;;;;;;;4.95;2.10;;;;;;;;;;5078330;28;20033;-87
2022/05/31 16:08:15;;;;;;;4.28;1.85;;;;;;;;;;5080452;28;20412;-87
2022/05/31 16:10:40;;;;;;;5.18;2.33;;;;;;;;;;5077981;28;20032;-87